createdAt,value
2019-03-03T00:00:42.178Z,71.88
2019-03-03T00:03:10.576Z,71.92
2019-03-03T00:05:39.047Z,71.81
2019-03-03T00:08:07.439Z,71.81
2019-03-03T00:10:36.111Z,71.84
2019-03-03T00:13:04.848Z,71.74
2019-03-03T00:15:33.414Z,71.76
2019-03-03T00:18:01.858Z,71.82
2019-03-03T00:20:30.289Z,71.99
2019-03-03T00:22:58.685Z,71.81
2019-03-03T00:25:27.086Z,71.77
2019-03-03T00:27:55.502Z,71.73
2019-03-03T00:30:23.898Z,71.71
2019-03-03T00:32:52.294Z,71.56
2019-03-03T00:35:20.699Z,71.43
2019-03-03T00:37:56.622Z,71.21
2019-03-03T00:40:29.446Z,71.11
2019-03-03T00:43:16.958Z,70.95
2019-03-03T00:45:46.998Z,70.89
2019-03-03T00:48:29.072Z,70.73
2019-03-03T00:50:59.125Z,70.83
2019-03-03T00:53:44.195Z,70.71
2019-03-03T00:56:30.303Z,70.72
2019-03-03T00:59:06.327Z,70.70
2019-03-03T01:01:36.364Z,70.76
2019-03-03T01:04:12.356Z,70.65
2019-03-03T01:06:42.410Z,70.70
2019-03-03T01:09:23.628Z,70.77
2019-03-03T01:11:53.944Z,70.67
2019-03-03T01:14:23.983Z,70.43
2019-03-03T01:16:54.050Z,70.48
2019-03-03T01:19:24.073Z,70.44
2019-03-03T01:21:54.134Z,70.46
2019-03-03T01:24:24.181Z,70.54
2019-03-03T01:26:52.577Z,70.32
2019-03-03T01:29:20.991Z,70.37
2019-03-03T01:31:49.390Z,70.25
2019-03-03T01:34:17.796Z,70.14
2019-03-03T01:36:46.184Z,70.18
2019-03-03T01:39:14.768Z,69.99
2019-03-03T01:41:43.168Z,69.96
2019-03-03T01:44:11.659Z,69.88
2019-03-03T01:46:40.114Z,69.93
2019-03-03T01:49:08.522Z,70.02
2019-03-03T01:51:36.923Z,69.95
2019-03-03T01:54:05.313Z,70.03
2019-03-03T01:56:33.713Z,69.87
2019-03-03T01:59:02.145Z,69.83
2019-03-03T02:01:30.540Z,69.99
2019-03-03T02:03:59.105Z,70.09
2019-03-03T02:06:27.503Z,70.13
2019-03-03T02:08:55.961Z,70.06
2019-03-03T02:11:24.527Z,70.09
2019-03-03T02:13:52.901Z,70.10
2019-03-03T02:16:21.418Z,70.22
2019-03-03T02:18:49.871Z,69.96
2019-03-03T02:21:18.254Z,69.99
2019-03-03T02:23:46.808Z,69.97
2019-03-03T02:26:15.422Z,70.11
2019-03-03T02:28:43.804Z,70.11
2019-03-03T02:31:12.203Z,70.16
2019-03-03T02:33:40.596Z,70.12
2019-03-03T02:36:09.009Z,70.12
2019-03-03T02:38:37.405Z,69.98
2019-03-03T02:41:05.867Z,69.83
2019-03-03T02:43:41.593Z,69.74
2019-03-03T02:46:10.306Z,69.68
2019-03-03T02:48:38.712Z,69.59
2019-03-03T02:51:07.095Z,69.65
2019-03-03T02:53:35.546Z,69.54
2019-03-03T02:56:03.947Z,69.58
2019-03-03T02:58:32.334Z,69.42
2019-03-03T03:01:02.379Z,69.49
2019-03-03T03:03:30.763Z,69.46
2019-03-03T03:06:00.836Z,69.56
2019-03-03T03:08:33.800Z,69.45
2019-03-03T03:11:03.846Z,69.44
2019-03-03T03:13:42.699Z,69.62
2019-03-03T03:16:24.973Z,69.65
2019-03-03T03:18:54.997Z,69.77
2019-03-03T03:21:27.742Z,69.71
2019-03-03T03:23:57.770Z,69.70
2019-03-03T03:26:33.471Z,69.75
2019-03-03T03:29:12.356Z,69.69
2019-03-03T03:31:58.812Z,69.48
2019-03-03T03:34:28.804Z,69.53
2019-03-03T03:36:58.891Z,69.47
2019-03-03T03:39:34.766Z,69.35
2019-03-03T03:42:07.949Z,69.17
2019-03-03T03:44:38.035Z,69.19
2019-03-03T03:47:08.057Z,69.19
2019-03-03T03:49:38.170Z,69.36
2019-03-03T03:52:08.347Z,69.28
2019-03-03T03:54:44.112Z,69.39
2019-03-03T03:57:30.123Z,69.35
2019-03-03T04:00:12.123Z,69.43
2019-03-03T04:02:42.244Z,69.39
2019-03-03T04:05:21.388Z,69.18
2019-03-03T04:07:56.959Z,69.22
2019-03-03T04:10:26.992Z,69.32
2019-03-03T04:12:57.082Z,69.34
2019-03-03T04:15:43.071Z,69.39
2019-03-03T04:18:19.056Z,69.37
2019-03-03T04:21:03.965Z,69.19
2019-03-03T04:23:36.719Z,69.13
2019-03-03T04:26:06.803Z,69.30
2019-03-03T04:28:42.544Z,69.28
2019-03-03T04:31:18.219Z,69.06
2019-03-03T04:34:03.237Z,68.80
2019-03-03T04:36:39.083Z,68.74
2019-03-03T04:39:15.349Z,68.62
2019-03-03T04:41:48.082Z,68.77
2019-03-03T04:44:34.398Z,68.61
2019-03-03T04:47:04.429Z,68.70
2019-03-03T04:49:49.495Z,68.58
2019-03-03T04:52:22.415Z,68.74
2019-03-03T04:55:08.931Z,68.71
2019-03-03T04:57:38.953Z,68.80
2019-03-03T05:00:17.675Z,68.76
2019-03-03T05:02:53.495Z,68.42
2019-03-03T05:05:39.367Z,68.30
2019-03-03T05:08:09.401Z,68.25
2019-03-03T05:10:57.270Z,68.11
2019-03-03T05:13:36.118Z,68.21
2019-03-03T05:16:09.003Z,68.12
2019-03-03T05:18:41.869Z,68.08
2019-03-03T05:21:10.311Z,68.16
2019-03-03T05:23:38.695Z,68.49
2019-03-03T05:26:07.175Z,68.61
2019-03-03T05:28:35.537Z,68.68
2019-03-03T05:31:03.924Z,68.80
2019-03-03T05:33:32.381Z,68.79
2019-03-03T05:36:00.764Z,68.85
2019-03-03T05:38:29.158Z,68.99
2019-03-03T05:40:57.577Z,69.21
2019-03-03T05:43:25.950Z,69.15
2019-03-03T05:45:54.732Z,69.32
2019-03-03T05:48:23.117Z,69.28
2019-03-03T05:50:51.516Z,69.53
2019-03-03T05:53:19.914Z,69.52
2019-03-03T05:55:48.303Z,69.62
2019-03-03T05:58:16.685Z,69.61
2019-03-03T06:00:45.103Z,69.60
2019-03-03T06:03:13.558Z,69.64
2019-03-03T06:05:41.943Z,69.65
2019-03-03T06:08:10.353Z,69.83
2019-03-03T06:10:38.929Z,69.79
2019-03-03T06:13:07.394Z,69.78
2019-03-03T06:15:35.824Z,69.82
2019-03-03T06:18:04.234Z,69.83
2019-03-03T06:20:32.677Z,69.78
2019-03-03T06:23:01.059Z,69.61
2019-03-03T06:25:29.478Z,69.52
2019-03-03T06:27:57.864Z,69.49
2019-03-03T06:30:26.272Z,69.48
2019-03-03T06:32:54.650Z,69.33
2019-03-03T06:35:23.055Z,69.18
2019-03-03T06:37:51.421Z,69.03
2019-03-03T06:40:19.847Z,68.87
2019-03-03T06:42:48.232Z,68.72
2019-03-03T06:45:16.622Z,68.57
2019-03-03T06:47:45.002Z,68.47
2019-03-03T06:50:13.804Z,68.32
2019-03-03T06:52:42.169Z,68.32
2019-03-03T06:55:10.734Z,68.20
2019-03-03T06:57:39.142Z,67.54
2019-03-03T07:00:10.571Z,67.37
2019-03-03T07:02:39.019Z,67.37
2019-03-03T07:05:08.859Z,67.23
2019-03-03T07:07:37.291Z,66.95
2019-03-03T07:10:08.892Z,66.70
2019-03-03T07:12:37.341Z,66.76
2019-03-03T07:15:09.083Z,66.28
2019-03-03T07:17:37.488Z,65.65
2019-03-03T07:20:08.748Z,65.63
2019-03-03T07:22:37.125Z,65.88
2019-03-03T07:25:08.682Z,65.65
2019-03-03T07:27:37.073Z,65.62
2019-03-03T07:30:08.460Z,65.56
2019-03-03T07:32:38.967Z,65.22
2019-03-03T07:35:07.410Z,64.97
2019-03-03T07:37:35.816Z,64.89
2019-03-03T07:40:05.544Z,64.63
2019-03-03T07:42:33.927Z,64.22
2019-03-03T07:45:04.508Z,64.25
2019-03-03T07:47:32.548Z,64.10
2019-03-03T07:50:00.927Z,64.08
2019-03-03T07:52:29.301Z,63.67
2019-03-03T07:54:57.679Z,63.98
2019-03-03T07:57:26.065Z,63.86
2019-03-03T07:59:54.441Z,63.45
2019-03-03T08:02:22.835Z,63.31
2019-03-03T08:04:51.212Z,63.27
2019-03-03T08:07:19.590Z,63.26
2019-03-03T08:09:47.969Z,62.87
2019-03-03T08:12:16.421Z,63.09
2019-03-03T08:14:44.804Z,62.82
2019-03-03T08:17:13.194Z,62.89
2019-03-03T08:19:41.579Z,62.58
2019-03-03T08:22:09.972Z,62.84
2019-03-03T08:24:39.278Z,62.83
2019-03-03T08:27:07.660Z,62.81
2019-03-03T08:29:36.041Z,62.37
2019-03-03T08:32:04.436Z,62.10
2019-03-03T08:34:32.825Z,62.09
2019-03-03T08:37:01.200Z,62.01
2019-03-03T08:39:29.589Z,61.84
2019-03-03T08:41:59.636Z,61.88
2019-03-03T08:44:29.659Z,62.12
2019-03-03T08:47:00.638Z,60.98
2019-03-03T08:49:33.318Z,61.18
2019-03-03T08:52:03.345Z,61.09
2019-03-03T08:54:42.082Z,60.86
2019-03-03T08:57:18.151Z,61.04
2019-03-03T08:59:50.851Z,60.49
2019-03-03T09:02:20.904Z,60.26
2019-03-03T09:04:53.567Z,59.94
2019-03-03T09:07:40.532Z,59.72
2019-03-03T09:10:10.692Z,59.34
2019-03-03T09:12:40.707Z,59.12
2019-03-03T09:15:21.116Z,58.84
2019-03-03T09:17:57.205Z,58.73
2019-03-03T09:20:33.706Z,58.60
2019-03-03T09:23:06.354Z,57.92
2019-03-03T09:25:39.294Z,57.43
2019-03-03T09:28:14.775Z,57.06
2019-03-03T09:30:57.519Z,57.14
2019-03-03T09:33:27.584Z,56.42
2019-03-03T09:36:06.353Z,56.07
2019-03-03T09:38:38.819Z,55.77
2019-03-03T09:41:17.685Z,55.97
2019-03-03T09:44:06.035Z,55.70
2019-03-03T09:46:52.285Z,55.38
2019-03-03T09:49:22.365Z,55.08
2019-03-03T09:52:05.174Z,55.24
2019-03-03T09:54:41.027Z,54.94
2019-03-03T09:57:13.466Z,54.91
2019-03-03T09:59:55.749Z,55.33
2019-03-03T10:02:38.097Z,54.81
2019-03-03T10:05:09.362Z,54.96
2019-03-03T10:07:40.389Z,54.81
2019-03-03T10:10:28.877Z,54.60
2019-03-03T10:13:04.933Z,55.09
2019-03-03T10:15:35.103Z,55.51
2019-03-03T10:18:11.468Z,55.32
2019-03-03T10:20:50.771Z,55.37
2019-03-03T10:23:32.568Z,55.21
2019-03-03T10:26:19.069Z,54.72
2019-03-03T10:28:49.104Z,54.48
2019-03-03T10:31:21.545Z,54.19
2019-03-03T10:34:09.629Z,54.79
2019-03-03T10:36:57.906Z,54.67
2019-03-03T10:39:27.940Z,54.31
2019-03-03T10:42:10.289Z,53.25
2019-03-03T10:44:55.580Z,53.67
2019-03-03T10:47:40.640Z,53.41
2019-03-03T10:50:20.694Z,53.33
2019-03-03T10:52:59.523Z,53.43
2019-03-03T10:55:45.396Z,52.60
2019-03-03T10:58:15.420Z,52.90
2019-03-03T11:00:51.600Z,53.24
2019-03-03T11:03:21.707Z,52.75
2019-03-03T11:06:08.165Z,52.90
2019-03-03T11:08:41.188Z,52.37
2019-03-03T11:11:20.489Z,52.36
2019-03-03T11:14:08.054Z,52.72
2019-03-03T11:16:44.189Z,52.91
2019-03-03T11:19:26.282Z,53.01
2019-03-03T11:21:59.044Z,52.84
2019-03-03T11:24:34.700Z,52.62
2019-03-03T11:27:20.896Z,52.75
2019-03-03T11:29:59.937Z,52.55
2019-03-03T11:32:45.050Z,51.76
2019-03-03T11:35:33.369Z,51.74
2019-03-03T11:38:19.696Z,51.42
2019-03-03T11:40:58.927Z,51.86
2019-03-03T11:43:37.611Z,51.46
2019-03-03T11:46:07.748Z,51.45
2019-03-03T11:48:52.758Z,51.53
2019-03-03T11:51:23.706Z,51.94
2019-03-03T11:56:46.575Z,50.85
2019-03-03T11:59:32.875Z,50.71
2019-03-03T12:02:14.947Z,50.61
2019-03-03T12:04:54.190Z,50.69
2019-03-03T12:07:41.788Z,50.39
2019-03-03T12:10:14.633Z,50.77
2019-03-03T12:13:00.847Z,50.42
2019-03-03T12:15:30.927Z,51.19
2019-03-03T12:18:03.621Z,51.46
2019-03-03T12:20:36.416Z,51.37
2019-03-03T12:23:17.149Z,51.06
2019-03-03T12:25:50.037Z,51.42
2019-03-03T12:28:37.843Z,51.36
2019-03-03T12:31:13.867Z,51.52
2019-03-03T12:33:43.928Z,51.33
2019-03-03T12:36:19.677Z,51.31
2019-03-03T12:38:49.714Z,51.93
2019-03-03T12:41:28.889Z,52.32
2019-03-03T12:44:04.700Z,52.49
2019-03-03T12:46:37.480Z,52.75
2019-03-03T12:49:22.762Z,52.61
2019-03-03T12:52:04.792Z,52.64
2019-03-03T12:54:43.880Z,52.85
2019-03-03T12:57:13.988Z,52.78
2019-03-03T12:59:49.876Z,53.04
2019-03-03T13:02:22.297Z,52.76
2019-03-03T13:05:04.557Z,53.07
2019-03-03T13:07:46.596Z,53.24
2019-03-03T13:10:33.005Z,53.12
2019-03-03T13:13:03.031Z,52.96
2019-03-03T13:15:44.988Z,53.20
2019-03-03T13:18:24.007Z,53.14
2019-03-03T13:21:00.239Z,53.07
2019-03-03T13:23:33.483Z,52.79
2019-03-03T13:26:03.504Z,52.82
2019-03-03T13:28:33.536Z,52.89
2019-03-03T13:31:12.721Z,52.94
2019-03-03T13:33:42.816Z,52.76
2019-03-03T13:36:12.837Z,52.94
2019-03-03T13:38:45.572Z,52.94
2019-03-03T13:41:18.557Z,52.67
2019-03-03T13:43:46.944Z,52.26
2019-03-03T13:46:15.337Z,52.41
2019-03-03T13:48:43.734Z,52.38
2019-03-03T13:51:12.221Z,51.87
2019-03-03T13:53:40.570Z,52.12
2019-03-03T13:56:09.047Z,51.65
2019-03-03T13:58:37.505Z,51.57
2019-03-03T14:01:08.098Z,51.92
2019-03-03T14:03:36.239Z,52.11
2019-03-03T14:06:04.781Z,51.89
2019-03-03T14:08:33.182Z,51.82
2019-03-03T14:11:01.584Z,51.81
2019-03-03T14:13:29.964Z,51.73
2019-03-03T14:15:58.352Z,51.46
2019-03-03T14:18:26.746Z,51.67
2019-03-03T14:20:55.142Z,51.22
2019-03-03T14:23:23.533Z,50.83
2019-03-03T14:25:51.915Z,50.90
2019-03-03T14:28:20.977Z,51.01
2019-03-03T14:30:49.370Z,50.96
2019-03-03T14:33:17.782Z,51.05
2019-03-03T14:35:46.167Z,50.95
2019-03-03T14:38:14.619Z,51.49
2019-03-03T14:40:43.025Z,51.29
2019-03-03T14:43:11.430Z,51.47
2019-03-03T14:45:39.826Z,51.80
2019-03-03T14:48:08.281Z,51.55
2019-03-03T14:50:36.738Z,51.78
2019-03-03T14:53:05.194Z,51.39
2019-03-03T14:55:33.654Z,51.38
2019-03-03T14:58:02.060Z,51.55
2019-03-03T15:00:33.875Z,51.33
2019-03-03T15:03:04.499Z,51.51
2019-03-03T15:05:33.075Z,51.66
2019-03-03T15:08:01.537Z,51.63
2019-03-03T15:10:29.918Z,51.77
2019-03-03T15:12:58.789Z,51.52
2019-03-03T15:15:32.976Z,51.54
2019-03-03T15:18:01.431Z,51.52
2019-03-03T15:20:30.087Z,51.58
2019-03-03T15:22:58.481Z,52.08
2019-03-03T15:25:26.939Z,52.23
2019-03-03T15:27:55.705Z,51.99
2019-03-03T15:30:24.458Z,51.85
2019-03-03T15:32:52.980Z,51.78
2019-03-03T15:35:21.379Z,51.82
2019-03-03T15:37:49.817Z,51.74
2019-03-03T15:40:25.463Z,52.11
2019-03-03T15:42:53.936Z,52.14
2019-03-03T15:45:23.985Z,51.84
2019-03-03T15:47:52.375Z,52.15
2019-03-03T15:50:21.918Z,52.02
2019-03-03T15:52:50.306Z,51.67
2019-03-03T15:55:29.797Z,51.75
2019-03-03T15:57:58.284Z,51.89
2019-03-03T16:00:32.090Z,52.09
2019-03-03T16:03:00.517Z,51.74
2019-03-03T16:05:29.036Z,51.97
2019-03-03T16:07:57.442Z,51.95
2019-03-03T16:10:26.968Z,52.23
2019-03-03T16:12:55.556Z,52.29
2019-03-03T16:15:24.054Z,52.38
2019-03-03T16:17:52.501Z,52.67
2019-03-03T16:20:23.191Z,52.76
2019-03-03T16:22:51.780Z,52.66
2019-03-03T16:25:26.548Z,52.49
2019-03-03T16:27:54.998Z,52.45
2019-03-03T16:30:26.341Z,52.61
2019-03-03T16:32:54.809Z,53.10
2019-03-03T16:35:23.203Z,53.37
2019-03-03T16:37:51.621Z,53.51
2019-03-03T16:40:24.130Z,53.24
2019-03-03T16:42:52.661Z,53.57
2019-03-03T16:45:23.112Z,53.47
2019-03-03T16:47:51.568Z,53.47
2019-03-03T16:50:22.164Z,53.71
2019-03-03T16:52:50.810Z,54.01
2019-03-03T16:55:22.711Z,54.14
2019-03-03T16:57:51.086Z,54.04
2019-03-03T17:00:28.716Z,53.83
2019-03-03T17:02:57.137Z,53.95
2019-03-03T17:05:27.729Z,53.87
2019-03-03T17:07:56.161Z,53.73
2019-03-03T17:10:24.700Z,53.96
2019-03-03T17:12:53.086Z,54.07
2019-03-03T17:15:29.094Z,54.33
2019-03-03T17:17:57.608Z,54.52
2019-03-03T17:20:26.004Z,55.12
2019-03-03T17:22:54.425Z,55.41
2019-03-03T17:25:26.393Z,55.47
2019-03-03T17:27:54.805Z,55.22
2019-03-03T17:30:27.797Z,55.27
2019-03-03T17:32:56.441Z,55.22
2019-03-03T17:35:24.947Z,55.40
2019-03-03T17:37:53.386Z,55.61
2019-03-03T17:40:24.068Z,55.75
2019-03-03T17:42:52.592Z,56.02
2019-03-03T17:45:22.422Z,56.53
2019-03-03T17:47:51.459Z,56.63
2019-03-03T17:50:24.703Z,56.71
2019-03-03T17:52:53.148Z,56.88
2019-03-03T17:55:21.676Z,56.91
2019-03-03T17:57:50.078Z,56.91
2019-03-03T18:00:26.065Z,56.82
2019-03-03T18:02:54.484Z,57.05
2019-03-03T18:05:22.949Z,57.05
2019-03-03T18:07:51.581Z,57.33
2019-03-03T18:10:20.313Z,57.33
2019-03-03T18:12:48.795Z,57.10
2019-03-03T18:15:17.964Z,57.04
2019-03-03T18:17:46.365Z,57.11
2019-03-03T18:20:23.946Z,57.25
2019-03-03T18:22:52.317Z,57.31
2019-03-03T18:25:21.556Z,57.50
2019-03-03T18:27:50.014Z,57.65
2019-03-03T18:30:22.888Z,57.75
2019-03-03T18:32:51.308Z,57.86
2019-03-03T18:35:19.694Z,57.95
2019-03-03T18:37:48.174Z,58.14
2019-03-03T18:40:19.621Z,58.22
2019-03-03T18:42:48.338Z,58.33
2019-03-03T18:45:20.702Z,58.34
2019-03-03T18:47:49.458Z,58.36
2019-03-03T18:50:28.570Z,58.34
2019-03-03T18:52:56.965Z,58.37
2019-03-03T18:55:25.634Z,58.43
2019-03-03T18:57:54.080Z,58.55
2019-03-03T19:00:25.200Z,58.66
2019-03-03T19:02:53.928Z,58.83
2019-03-03T19:05:22.399Z,58.74
2019-03-03T19:07:50.882Z,58.77
2019-03-03T19:10:25.466Z,58.67
2019-03-03T19:12:53.942Z,58.66
2019-03-03T19:15:22.416Z,58.62
2019-03-03T19:17:50.816Z,58.66
2019-03-03T19:20:21.237Z,58.74
2019-03-03T19:22:49.992Z,58.75
2019-03-03T19:25:18.556Z,58.79
2019-03-03T19:27:46.931Z,58.99
2019-03-03T19:30:18.386Z,59.16
2019-03-03T19:32:48.914Z,59.06
2019-03-03T19:35:17.393Z,59.09
2019-03-03T19:37:45.779Z,59.23
2019-03-03T19:40:14.635Z,59.24
2019-03-03T19:42:43.042Z,59.29
2019-03-03T19:45:20.510Z,59.39
2019-03-03T19:47:48.971Z,59.69
2019-03-03T19:50:17.381Z,59.99
2019-03-03T19:52:45.924Z,60.47
2019-03-03T19:55:16.767Z,60.50
2019-03-03T19:57:45.318Z,60.71
2019-03-03T20:00:22.668Z,60.74
2019-03-03T20:02:51.048Z,60.99
2019-03-03T20:05:19.432Z,60.99
2019-03-03T20:07:47.819Z,61.24
2019-03-03T20:10:16.349Z,61.34
2019-03-03T20:12:44.832Z,61.26
2019-03-03T20:15:13.306Z,61.50
2019-03-03T20:17:43.941Z,61.69
2019-03-03T20:20:16.881Z,61.60
2019-03-03T20:22:45.339Z,61.59
2019-03-03T20:25:14.189Z,61.68
2019-03-03T20:27:43.327Z,61.69
2019-03-03T20:30:19.422Z,62.14
2019-03-03T20:32:47.952Z,61.96
2019-03-03T20:35:16.568Z,62.10
2019-03-03T20:37:45.422Z,62.14
2019-03-03T20:40:16.506Z,62.54
2019-03-03T20:42:45.054Z,62.86
2019-03-03T20:45:22.121Z,63.31
2019-03-03T20:47:50.576Z,63.31
2019-03-03T20:50:20.488Z,63.46
2019-03-03T20:52:49.529Z,63.66
2019-03-03T20:55:20.454Z,63.71
2019-03-03T20:57:49.731Z,63.83
2019-03-03T21:00:20.722Z,64.09
2019-03-03T21:02:49.111Z,64.19
2019-03-03T21:05:17.756Z,64.30
2019-03-03T21:07:51.274Z,64.37
2019-03-03T21:10:20.821Z,64.37
2019-03-03T21:12:49.313Z,64.45
2019-03-03T21:15:18.023Z,64.50
2019-03-03T21:17:46.434Z,64.61
2019-03-03T21:20:16.844Z,64.61
2019-03-03T21:22:45.254Z,64.71
2019-03-03T21:25:14.878Z,64.91
2019-03-03T21:27:43.363Z,65.08
2019-03-03T21:30:26.184Z,65.23
2019-03-03T21:32:54.727Z,65.30
2019-03-03T21:35:23.354Z,65.59
2019-03-03T21:37:51.975Z,65.64
2019-03-03T21:40:27.522Z,65.67
2019-03-03T21:42:56.960Z,65.59
2019-03-03T21:45:30.207Z,65.67
2019-03-03T21:47:58.614Z,65.69
2019-03-03T21:50:31.825Z,65.97
2019-03-03T21:53:00.227Z,65.91
2019-03-03T21:55:28.623Z,65.96
2019-03-03T21:57:57.046Z,65.84
2019-03-03T22:00:42.221Z,65.82
2019-03-03T22:03:11.067Z,65.84
2019-03-03T22:05:39.348Z,65.83
2019-03-03T22:08:07.738Z,65.89
2019-03-03T22:10:36.210Z,66.00
2019-03-03T22:13:07.424Z,66.11
2019-03-03T22:15:35.980Z,66.32
2019-03-03T22:18:04.748Z,66.67
2019-03-03T22:20:33.244Z,66.60
2019-03-03T22:23:02.383Z,66.74
2019-03-03T22:25:31.048Z,66.75
2019-03-03T22:27:59.529Z,67.02
2019-03-03T22:30:28.105Z,66.99
2019-03-03T22:32:56.592Z,67.14
2019-03-03T22:35:25.039Z,67.21
2019-03-03T22:37:53.459Z,67.12
2019-03-03T22:40:23.195Z,67.22
2019-03-03T22:42:51.600Z,67.42
2019-03-03T22:45:20.015Z,67.47
2019-03-03T22:47:48.472Z,67.48
2019-03-03T22:50:18.197Z,67.54
2019-03-03T22:52:46.615Z,67.58
2019-03-03T22:55:18.043Z,67.54
2019-03-03T22:57:46.434Z,67.65
2019-03-03T23:00:40.880Z,67.69
2019-03-03T23:03:09.366Z,67.70
2019-03-03T23:05:46.653Z,67.70
2019-03-03T23:08:20.673Z,68.05
2019-03-03T23:10:57.997Z,68.01
2019-03-03T23:13:41.367Z,67.92
2019-03-03T23:16:33.447Z,67.99
2019-03-03T23:19:08.170Z,68.00
2019-03-03T23:21:45.777Z,67.94
2019-03-03T23:24:37.112Z,68.13
2019-03-03T23:27:05.528Z,68.06
2019-03-03T23:29:33.934Z,68.34
2019-03-03T23:32:02.319Z,68.65
2019-03-03T23:34:30.704Z,68.77
2019-03-03T23:36:59.111Z,68.69
2019-03-03T23:39:27.506Z,68.53
2019-03-03T23:41:55.906Z,68.99
2019-03-03T23:44:24.322Z,69.02
2019-03-03T23:46:52.714Z,69.00
2019-03-03T23:49:21.114Z,68.98
2019-03-03T23:51:49.541Z,69.17
2019-03-03T23:54:17.914Z,69.10
2019-03-03T23:56:46.295Z,69.00
2019-03-03T23:59:14.800Z,69.04
